Time;durP1;ratioP1;P1;durP2;ratioP2;P2;SDS_P1;SDS_P2;PMS_P1;PMS_P2;Temp;Humidity;BMP_temperature;BMP_pressure;BME280_temperature;BME280_humidity;BME280_pressure;Samples;Min_cycle;Max_cycle;Signal;HPM_P1;HPM_P2
2022/10/21 00:01:18;;;;;;;24.60;22.10;;;;;;;;;;5060072;28;20468;-76
2022/10/21 00:03:45;;;;;;;24.00;21.27;;;;;;;;;;5060009;28;20456;-75
2022/10/21 00:06:12;;;;;;;23.57;20.30;;;;;;;;;;5061867;28;20972;-75
2022/10/21 00:08:39;;;;;;;24.00;21.17;;;;;;;;;;5065403;28;20435;-75
2022/10/21 00:11:08;;;;;;;23.97;21.33;;;;;;;;;;5065998;28;20464;-76
2022/10/21 00:13:37;;;;;;;25.13;21.17;;;;;;;;;;5075199;28;20436;-76
2022/10/21 00:16:07;;;;;;;26.47;23.63;;;;;;;;;;5080882;28;20861;-76
2022/10/21 00:18:35;;;;;;;27.40;23.10;;;;;;;;;;5074323;28;20444;-75
2022/10/21 00:21:06;;;;;;;27.67;21.50;;;;;;;;;;5073363;28;21002;-75
2022/10/21 00:23:33;;;;;;;25.90;22.30;;;;;;;;;;5072989;28;20441;-77
2022/10/21 00:26:00;;;;;;;26.70;23.03;;;;;;;;;;5073271;28;20467;-75
2022/10/21 00:28:27;;;;;;;26.53;22.23;;;;;;;;;;5073617;28;20448;-76
2022/10/21 00:30:55;;;;;;;24.17;21.57;;;;;;;;;;5073189;28;20456;-76
2022/10/21 00:33:23;;;;;;;25.13;22.27;;;;;;;;;;5072669;28;20445;-75
2022/10/21 00:35:51;;;;;;;28.97;23.40;;;;;;;;;;5073032;28;20476;-75
2022/10/21 00:38:19;;;;;;;30.60;22.77;;;;;;;;;;5073633;28;20483;-75
2022/10/21 00:40:46;;;;;;;24.97;22.30;;;;;;;;;;5073369;28;20465;-76
2022/10/21 00:43:13;;;;;;;25.23;22.03;;;;;;;;;;5072628;28;20447;-77
2022/10/21 00:45:40;;;;;;;24.50;19.77;;;;;;;;;;5073113;28;20815;-75
2022/10/21 00:48:10;;;;;;;24.17;21.60;;;;;;;;;;5073215;28;20970;-76
2022/10/21 00:50:41;;;;;;;30.03;22.93;;;;;;;;;;5073494;28;20891;-75
2022/10/21 00:53:11;;;;;;;28.20;21.10;;;;;;;;;;5073468;28;20871;-77
2022/10/21 00:55:40;;;;;;;25.13;21.70;;;;;;;;;;5074707;28;20445;-76
2022/10/21 00:58:07;;;;;;;26.40;20.57;;;;;;;;;;5073243;28;20441;-76
2022/10/21 01:00:35;;;;;;;25.70;20.43;;;;;;;;;;5073806;28;20952;-76
2022/10/21 01:03:02;;;;;;;27.23;23.03;;;;;;;;;;5072961;28;20987;-76
2022/10/21 01:05:30;;;;;;;25.60;21.40;;;;;;;;;;5073513;28;20447;-75
2022/10/21 01:07:58;;;;;;;28.60;22.33;;;;;;;;;;5072954;28;20936;-76
2022/10/21 01:10:25;;;;;;;26.30;21.70;;;;;;;;;;5072378;28;20443;-76
2022/10/21 01:12:58;;;;;;;29.27;21.53;;;;;;;;;;5059661;28;20445;-76
2022/10/21 01:15:29;;;;;;;25.30;21.20;;;;;;;;;;5052667;28;20422;-76
2022/10/21 01:18:02;;;;;;;26.07;21.60;;;;;;;;;;5053096;28;20491;-76
2022/10/21 01:20:39;;;;;;;27.73;21.20;;;;;;;;;;5052962;28;20817;-76
2022/10/21 01:23:29;;;;;;;24.50;21.90;;;;;;;;;;5052399;28;20436;-76
2022/10/21 01:26:06;;;;;;;29.60;19.40;;;;;;;;;;5052397;28;20446;-77
2022/10/21 01:28:40;;;;;;;24.23;20.90;;;;;;;;;;5052773;28;20430;-75
2022/10/21 01:31:11;;;;;;;22.97;20.20;;;;;;;;;;5052780;28;20469;-76
2022/10/21 01:33:40;;;;;;;22.87;20.27;;;;;;;;;;5071205;28;20426;-74
2022/10/21 01:36:22;;;;;;;24.70;19.80;;;;;;;;;;5077421;28;20425;-75
2022/10/21 01:38:58;;;;;;;28.50;21.47;;;;;;;;;;5075483;28;20523;-75
2022/10/21 01:41:27;;;;;;;22.83;20.30;;;;;;;;;;5077092;28;20539;-75
2022/10/21 01:43:56;;;;;;;22.27;19.97;;;;;;;;;;5065586;28;20447;-75
2022/10/21 01:46:27;;;;;;;22.83;20.50;;;;;;;;;;5059797;28;20430;-75
2022/10/21 01:48:56;;;;;;;28.73;20.70;;;;;;;;;;5052314;28;20458;-76
2022/10/21 01:51:26;;;;;;;24.47;19.83;;;;;;;;;;5052103;28;20469;-76
2022/10/21 01:53:55;;;;;;;26.13;22.20;;;;;;;;;;5051501;28;20446;-75
2022/10/21 01:56:23;;;;;;;25.77;21.63;;;;;;;;;;5051913;28;20484;-76
2022/10/21 01:58:51;;;;;;;26.93;20.27;;;;;;;;;;5052252;28;20818;-75
2022/10/21 02:01:19;;;;;;;23.80;20.60;;;;;;;;;;5051575;28;20469;-76
2022/10/21 02:03:48;;;;;;;24.60;19.23;;;;;;;;;;5051245;28;20473;-75
2022/10/21 02:06:16;;;;;;;24.80;21.27;;;;;;;;;;5051221;28;20442;-76
2022/10/21 02:08:44;;;;;;;23.97;18.30;;;;;;;;;;5050655;28;20888;-76
2022/10/21 02:11:12;;;;;;;22.30;18.80;;;;;;;;;;5051501;28;20461;-75
2022/10/21 02:13:42;;;;;;;22.37;19.27;;;;;;;;;;5071221;28;20466;-75
2022/10/21 02:16:10;;;;;;;20.87;17.87;;;;;;;;;;5073466;28;20508;-75
2022/10/21 02:18:37;;;;;;;21.03;18.37;;;;;;;;;;5074566;28;20448;-75
2022/10/21 02:21:08;;;;;;;20.13;17.97;;;;;;;;;;5075155;28;20464;-75
2022/10/21 02:23:39;;;;;;;21.10;18.37;;;;;;;;;;5075138;28;20452;-75
2022/10/21 02:26:06;;;;;;;25.30;20.13;;;;;;;;;;5075139;28;20447;-75
2022/10/21 02:28:33;;;;;;;21.07;18.37;;;;;;;;;;5078527;28;20456;-75
2022/10/21 02:31:05;;;;;;;23.20;18.97;;;;;;;;;;5083267;28;20472;-75
2022/10/21 02:33:36;;;;;;;20.30;18.30;;;;;;;;;;5075131;28;20445;-75
2022/10/21 02:36:10;;;;;;;20.70;18.00;;;;;;;;;;5075512;28;20479;-75
2022/10/21 02:38:41;;;;;;;20.23;18.10;;;;;;;;;;5082954;28;20424;-74
2022/10/21 02:41:10;;;;;;;21.40;19.10;;;;;;;;;;5084798;28;20461;-76
2022/10/21 02:43:39;;;;;;;19.87;17.70;;;;;;;;;;5079976;28;20456;-75
2022/10/21 02:46:07;;;;;;;20.10;18.00;;;;;;;;;;5083558;28;20440;-75
2022/10/21 02:48:34;;;;;;;25.33;18.50;;;;;;;;;;5076357;28;20472;-76
2022/10/21 02:51:03;;;;;;;22.40;19.90;;;;;;;;;;5071804;28;20460;-76
2022/10/21 02:53:31;;;;;;;22.00;18.50;;;;;;;;;;5071130;28;20441;-75
2022/10/21 02:55:58;;;;;;;20.63;18.30;;;;;;;;;;5071752;28;20443;-75
2022/10/21 02:58:25;;;;;;;20.03;17.90;;;;;;;;;;5071143;28;20480;-75
2022/10/21 03:00:52;;;;;;;20.93;18.60;;;;;;;;;;5070219;28;20491;-75
2022/10/21 03:03:19;;;;;;;23.60;19.20;;;;;;;;;;5069912;28;20831;-77
2022/10/21 03:05:47;;;;;;;23.60;19.70;;;;;;;;;;5070205;28;20448;-76
2022/10/21 03:08:14;;;;;;;24.50;19.60;;;;;;;;;;5070371;28;20506;-76
2022/10/21 03:10:42;;;;;;;26.27;20.70;;;;;;;;;;5070284;28;20472;-77
2022/10/21 03:13:09;;;;;;;29.00;19.77;;;;;;;;;;5054427;28;20433;-75
2022/10/21 03:15:36;;;;;;;22.63;20.13;;;;;;;;;;5050594;28;20452;-77
2022/10/21 03:18:04;;;;;;;24.10;20.77;;;;;;;;;;5050449;28;20482;-76
2022/10/21 03:20:31;;;;;;;25.60;19.47;;;;;;;;;;5052480;28;20525;-76
2022/10/21 03:22:58;;;;;;;31.20;20.37;;;;;;;;;;5054699;28;20448;-77
2022/10/21 03:25:25;;;;;;;30.37;19.93;;;;;;;;;;5062851;28;20442;-76
2022/10/21 03:27:54;;;;;;;24.77;18.70;;;;;;;;;;5079520;28;20434;-75
2022/10/21 03:30:21;;;;;;;25.33;19.10;;;;;;;;;;5079419;28;20437;-75
2022/10/21 03:32:48;;;;;;;23.33;20.17;;;;;;;;;;5076061;28;20453;-75
2022/10/21 03:35:15;;;;;;;22.77;19.40;;;;;;;;;;5057360;28;20453;-77
2022/10/21 03:37:42;;;;;;;19.60;17.50;;;;;;;;;;5054444;28;20650;-76
2022/10/21 03:40:09;;;;;;;20.90;18.30;;;;;;;;;;5054309;28;20437;-75
2022/10/21 03:42:36;;;;;;;18.57;16.67;;;;;;;;;;5053744;28;20473;-75
2022/10/21 03:45:05;;;;;;;20.63;18.33;;;;;;;;;;5053727;28;20548;-76
2022/10/21 03:47:32;;;;;;;20.97;18.70;;;;;;;;;;5053704;28;20444;-75
2022/10/21 03:49:59;;;;;;;19.83;17.63;;;;;;;;;;5054266;28;20449;-76
2022/10/21 03:52:26;;;;;;;26.97;18.77;;;;;;;;;;5053897;28;20468;-76
2022/10/21 03:54:53;;;;;;;20.87;18.57;;;;;;;;;;5053680;28;20450;-75
2022/10/21 03:57:20;;;;;;;19.40;17.50;;;;;;;;;;5054201;28;20481;-77
2022/10/21 03:59:47;;;;;;;22.20;16.93;;;;;;;;;;5054295;28;20446;-75
2022/10/21 04:02:16;;;;;;;19.90;18.00;;;;;;;;;;5053944;28;20457;-78
2022/10/21 04:04:43;;;;;;;20.37;17.83;;;;;;;;;;5053661;28;20449;-75
2022/10/21 04:07:10;;;;;;;22.13;18.60;;;;;;;;;;5054294;28;20441;-76
2022/10/21 04:09:37;;;;;;;23.50;17.53;;;;;;;;;;5053470;28;20446;-75
2022/10/21 04:12:04;;;;;;;19.53;17.53;;;;;;;;;;5059152;28;20995;-77
2022/10/21 04:14:31;;;;;;;21.20;17.47;;;;;;;;;;5072798;28;20476;-75
2022/10/21 04:16:58;;;;;;;22.43;17.80;;;;;;;;;;5073674;28;20475;-75
2022/10/21 04:19:27;;;;;;;21.93;18.43;;;;;;;;;;5074021;28;20440;-76
2022/10/21 04:21:54;;;;;;;19.47;17.47;;;;;;;;;;5073452;28;20471;-75
2022/10/21 04:24:21;;;;;;;21.60;18.17;;;;;;;;;;5073502;28;20467;-76
2022/10/21 04:26:48;;;;;;;19.50;16.57;;;;;;;;;;5073651;28;20452;-75
2022/10/21 04:29:15;;;;;;;19.23;17.23;;;;;;;;;;5073367;28;20475;-75
2022/10/21 04:31:42;;;;;;;21.23;19.00;;;;;;;;;;5072936;28;20468;-75
2022/10/21 04:34:09;;;;;;;20.07;17.63;;;;;;;;;;5073386;28;20808;-75
2022/10/21 04:36:37;;;;;;;20.20;18.10;;;;;;;;;;5073729;28;20444;-76
2022/10/21 04:39:05;;;;;;;22.40;20.10;;;;;;;;;;5073366;28;20488;-76
2022/10/21 04:41:32;;;;;;;21.30;17.83;;;;;;;;;;5073191;28;20460;-75
2022/10/21 04:43:59;;;;;;;20.93;18.70;;;;;;;;;;5072552;28;20936;-76
2022/10/21 04:46:26;;;;;;;21.17;19.07;;;;;;;;;;5073284;28;20437;-76
2022/10/21 04:48:53;;;;;;;19.80;17.70;;;;;;;;;;5072958;28;20448;-76
2022/10/21 04:51:20;;;;;;;23.83;18.00;;;;;;;;;;5073151;28;20998;-74
2022/10/21 04:53:48;;;;;;;20.77;17.57;;;;;;;;;;5072535;28;20445;-76
2022/10/21 04:56:15;;;;;;;21.80;19.00;;;;;;;;;;5072408;28;20448;-75
2022/10/21 04:58:42;;;;;;;20.37;18.37;;;;;;;;;;5073449;28;20476;-76
2022/10/21 05:01:09;;;;;;;25.93;18.27;;;;;;;;;;5073142;28;20468;-75
2022/10/21 05:03:37;;;;;;;23.17;18.53;;;;;;;;;;5072581;28;20456;-76
2022/10/21 05:06:04;;;;;;;22.00;19.30;;;;;;;;;;5073092;28;20445;-76
2022/10/21 05:08:31;;;;;;;21.63;18.27;;;;;;;;;;5073126;28;20840;-76
2022/10/21 05:11:00;;;;;;;21.23;18.83;;;;;;;;;;5073172;28;20492;-75
2022/10/21 05:13:27;;;;;;;25.67;20.00;;;;;;;;;;5072109;28;20448;-76
2022/10/21 05:15:57;;;;;;;20.57;18.13;;;;;;;;;;5072750;28;20448;-76
2022/10/21 05:18:24;;;;;;;24.57;17.87;;;;;;;;;;5072322;28;20852;-76
2022/10/21 05:20:51;;;;;;;21.27;17.37;;;;;;;;;;5072410;28;20988;-76
2022/10/21 05:23:18;;;;;;;23.97;19.27;;;;;;;;;;5072102;28;20772;-75
2022/10/21 05:25:46;;;;;;;20.07;17.00;;;;;;;;;;5072602;28;20437;-76
2022/10/21 05:28:14;;;;;;;18.77;16.80;;;;;;;;;;5072677;28;20454;-76
2022/10/21 05:30:41;;;;;;;19.40;17.40;;;;;;;;;;5072829;28;20472;-77
2022/10/21 05:33:08;;;;;;;20.40;17.37;;;;;;;;;;5071890;28;20444;-76
2022/10/21 05:35:35;;;;;;;19.80;16.70;;;;;;;;;;5067486;28;20979;-76
2022/10/21 05:38:03;;;;;;;22.33;15.77;;;;;;;;;;5062482;28;20479;-75
2022/10/21 05:40:30;;;;;;;15.60;12.83;;;;;;;;;;5062552;28;20440;-75
2022/10/21 05:42:57;;;;;;;16.13;11.40;;;;;;;;;;5063515;28;20483;-75
2022/10/21 05:45:26;;;;;;;17.43;9.23;;;;;;;;;;5071809;28;20445;-76
2022/10/21 05:47:53;;;;;;;11.53;7.40;;;;;;;;;;5071849;28;20452;-78
2022/10/21 05:50:20;;;;;;;15.77;8.80;;;;;;;;;;5071911;28;20448;-76
2022/10/21 05:52:47;;;;;;;10.00;7.27;;;;;;;;;;5071357;28;20488;-76
2022/10/21 05:55:14;;;;;;;10.23;7.43;;;;;;;;;;5071914;28;20842;-76
2022/10/21 05:57:41;;;;;;;13.23;7.37;;;;;;;;;;5071836;28;20552;-76
2022/10/21 06:00:09;;;;;;;12.93;7.27;;;;;;;;;;5071813;28;20440;-78
2022/10/21 06:02:37;;;;;;;16.93;9.93;;;;;;;;;;5071652;28;20835;-76
2022/10/21 06:05:05;;;;;;;13.77;6.73;;;;;;;;;;5071256;28;20536;-76
2022/10/21 06:07:32;;;;;;;9.97;6.03;;;;;;;;;;5065984;28;20453;-77
2022/10/21 06:09:59;;;;;;;13.00;6.00;;;;;;;;;;5056415;28;20964;-75
2022/10/21 06:12:26;;;;;;;8.80;6.50;;;;;;;;;;5062572;28;20484;-76
2022/10/21 06:14:54;;;;;;;11.57;7.57;;;;;;;;;;5060491;28;20445;-77
2022/10/21 06:17:21;;;;;;;11.37;6.87;;;;;;;;;;5071716;28;20928;-77
2022/10/21 06:19:50;;;;;;;14.03;7.80;;;;;;;;;;5071677;28;20441;-77
2022/10/21 06:22:17;;;;;;;17.13;7.90;;;;;;;;;;5071321;28;20465;-75
2022/10/21 06:24:44;;;;;;;13.17;6.77;;;;;;;;;;5070996;28;20444;-76
2022/10/21 06:27:11;;;;;;;9.90;6.20;;;;;;;;;;5071345;28;20492;-77
2022/10/21 06:29:38;;;;;;;12.57;6.30;;;;;;;;;;5071379;28;20464;-77
2022/10/21 06:32:05;;;;;;;11.13;6.60;;;;;;;;;;5069818;28;20464;-77
2022/10/21 06:34:32;;;;;;;11.17;6.80;;;;;;;;;;5062794;28;20445;-76
2022/10/21 06:37:01;;;;;;;11.37;8.20;;;;;;;;;;5071724;28;20441;-78
2022/10/21 06:39:28;;;;;;;11.43;6.20;;;;;;;;;;5071145;28;20479;-77
2022/10/21 06:41:56;;;;;;;12.80;6.30;;;;;;;;;;5071274;28;20562;-78
2022/10/21 06:44:23;;;;;;;11.40;6.43;;;;;;;;;;5070701;28;20451;-76
2022/10/21 06:46:50;;;;;;;12.20;6.97;;;;;;;;;;5070940;28;20452;-77
2022/10/21 06:49:17;;;;;;;14.63;7.00;;;;;;;;;;5071694;28;20448;-77
2022/10/21 06:51:44;;;;;;;17.10;6.17;;;;;;;;;;5071456;28;20472;-78
2022/10/21 06:54:12;;;;;;;9.80;6.50;;;;;;;;;;5070175;28;20543;-76
2022/10/21 06:56:39;;;;;;;12.53;7.03;;;;;;;;;;5057488;28;20916;-78
2022/10/21 06:59:06;;;;;;;10.73;7.93;;;;;;;;;;5069190;28;20519;-77
2022/10/21 07:01:35;;;;;;;16.07;6.67;;;;;;;;;;5071739;28;20507;-77
2022/10/21 07:04:02;;;;;;;9.87;6.00;;;;;;;;;;5072453;28;20821;-77
2022/10/21 07:06:30;;;;;;;11.40;7.23;;;;;;;;;;5084228;28;20436;-78
2022/10/21 07:08:57;;;;;;;8.53;5.80;;;;;;;;;;5076775;28;20936;-77
2022/10/21 07:11:25;;;;;;;12.40;7.40;;;;;;;;;;5075716;28;21012;-77
2022/10/21 07:13:52;;;;;;;11.53;6.90;;;;;;;;;;5078328;28;20509;-77
2022/10/21 07:16:21;;;;;;;12.67;9.57;;;;;;;;;;5071927;28;20929;-75
2022/10/21 07:18:48;;;;;;;15.97;9.20;;;;;;;;;;5071343;28;20975;-76
2022/10/21 07:21:17;;;;;;;12.40;7.60;;;;;;;;;;5071205;28;20486;-75
2022/10/21 07:23:44;;;;;;;21.20;9.00;;;;;;;;;;5070126;28;20940;-76
2022/10/21 07:26:12;;;;;;;16.23;8.90;;;;;;;;;;5070414;28;20441;-76
2022/10/21 07:28:45;;;;;;;18.97;9.57;;;;;;;;;;5070917;28;20445;-76
2022/10/21 07:31:12;;;;;;;15.87;9.33;;;;;;;;;;5070818;28;20475;-76
2022/10/21 07:33:39;;;;;;;15.77;9.70;;;;;;;;;;5072870;28;20451;-76
2022/10/21 07:36:07;;;;;;;18.43;10.20;;;;;;;;;;5070390;28;20471;-75
2022/10/21 07:38:34;;;;;;;16.90;12.13;;;;;;;;;;5070463;28;21046;-76
2022/10/21 07:41:01;;;;;;;15.20;10.03;;;;;;;;;;5070692;28;20468;-76
2022/10/21 07:43:29;;;;;;;16.07;10.60;;;;;;;;;;5069375;28;20444;-76
2022/10/21 07:45:58;;;;;;;15.07;10.70;;;;;;;;;;5069941;28;20456;-75
2022/10/21 07:48:25;;;;;;;15.93;11.27;;;;;;;;;;5069755;28;20456;-75
2022/10/21 07:50:52;;;;;;;17.17;12.50;;;;;;;;;;5070093;28;20471;-76
2022/10/21 07:53:20;;;;;;;15.40;11.60;;;;;;;;;;5069313;28;20819;-76
2022/10/21 07:55:47;;;;;;;14.90;11.30;;;;;;;;;;5070351;28;20857;-76
2022/10/21 07:58:14;;;;;;;15.03;13.10;;;;;;;;;;5069990;28;20476;-76
2022/10/21 08:00:43;;;;;;;17.83;12.20;;;;;;;;;;5070137;28;20449;-76
2022/10/21 08:03:11;;;;;;;17.70;11.77;;;;;;;;;;5069459;28;20464;-76
2022/10/21 08:05:40;;;;;;;15.50;10.90;;;;;;;;;;5070763;28;20974;-76
2022/10/21 08:08:07;;;;;;;19.20;11.10;;;;;;;;;;5073839;28;20449;-77
2022/10/21 08:10:39;;;;;;;15.40;12.10;;;;;;;;;;5073643;28;20445;-76
2022/10/21 08:13:06;;;;;;;18.47;10.60;;;;;;;;;;5072884;28;20432;-77
2022/10/21 08:15:33;;;;;;;20.50;12.20;;;;;;;;;;5073498;28;20440;-77
2022/10/21 08:18:00;;;;;;;20.17;11.17;;;;;;;;;;5073393;28;20497;-76
2022/10/21 08:20:29;;;;;;;14.80;10.83;;;;;;;;;;5074379;28;20959;-77
2022/10/21 08:22:56;;;;;;;16.30;9.87;;;;;;;;;;5082149;28;20444;-75
2022/10/21 08:25:23;;;;;;;15.33;11.23;;;;;;;;;;5080164;28;20436;-77
2022/10/21 08:27:50;;;;;;;15.80;10.60;;;;;;;;;;5080820;28;20448;-77
2022/10/21 08:30:17;;;;;;;12.37;10.30;;;;;;;;;;5076296;28;20448;-76
2022/10/21 08:32:44;;;;;;;15.50;10.33;;;;;;;;;;5073638;28;20444;-76
2022/10/21 08:35:11;;;;;;;13.13;10.07;;;;;;;;;;5066761;28;20453;-77
2022/10/21 08:37:39;;;;;;;18.80;10.30;;;;;;;;;;5056690;28;20433;-77
2022/10/21 08:40:07;;;;;;;12.67;11.30;;;;;;;;;;5056603;28;20485;-77
2022/10/21 08:42:38;;;;;;;13.13;10.03;;;;;;;;;;5052689;28;20476;-76
2022/10/21 08:45:07;;;;;;;12.93;9.70;;;;;;;;;;5053824;28;20426;-75
2022/10/21 08:47:36;;;;;;;14.27;11.13;;;;;;;;;;5068603;28;20817;-77
2022/10/21 08:50:06;;;;;;;14.40;11.50;;;;;;;;;;5073966;28;20436;-75
2022/10/21 08:52:38;;;;;;;13.70;11.30;;;;;;;;;;5073292;28;20994;-76
2022/10/21 08:55:11;;;;;;;11.90;10.60;;;;;;;;;;5073518;28;21042;-77
2022/10/21 08:57:38;;;;;;;15.03;10.20;;;;;;;;;;5074164;28;20437;-75
2022/10/21 09:00:12;;;;;;;12.03;10.60;;;;;;;;;;5073067;28;20472;-76
2022/10/21 09:02:43;;;;;;;12.47;10.40;;;;;;;;;;5073023;28;20475;-76
2022/10/21 09:05:23;;;;;;;13.73;8.97;;;;;;;;;;5072932;28;20425;-76
2022/10/21 09:07:55;;;;;;;10.73;7.93;;;;;;;;;;5072687;28;20428;-75
2022/10/21 09:10:29;;;;;;;12.77;7.67;;;;;;;;;;5072341;28;20425;-77
2022/10/21 09:13:03;;;;;;;9.53;7.87;;;;;;;;;;5071584;28;20827;-76
2022/10/21 09:15:33;;;;;;;12.20;7.60;;;;;;;;;;5072217;28;20911;-78
2022/10/21 09:18:11;;;;;;;11.33;7.13;;;;;;;;;;5071490;28;20424;-78
2022/10/21 09:20:46;;;;;;;12.63;6.87;;;;;;;;;;5071866;28;20511;-76
2022/10/21 09:23:23;;;;;;;15.37;8.40;;;;;;;;;;5071813;28;20436;-76
2022/10/21 09:25:53;;;;;;;11.03;7.10;;;;;;;;;;5071970;28;20444;-77
2022/10/21 09:28:20;;;;;;;10.40;7.07;;;;;;;;;;5071992;28;20421;-76
2022/10/21 09:30:48;;;;;;;15.43;7.57;;;;;;;;;;5071834;28;20457;-77
2022/10/21 09:33:17;;;;;;;13.53;8.30;;;;;;;;;;5071497;28;20456;-75
2022/10/21 09:35:47;;;;;;;15.73;8.30;;;;;;;;;;5072165;28;20448;-76
2022/10/21 09:38:17;;;;;;;16.80;8.40;;;;;;;;;;5072298;28;20468;-76
2022/10/21 09:40:44;;;;;;;10.73;7.33;;;;;;;;;;5071634;28;20841;-76
2022/10/21 09:43:17;;;;;;;8.57;5.43;;;;;;;;;;5072064;28;20452;-78
2022/10/21 09:45:44;;;;;;;7.67;4.60;;;;;;;;;;5071867;28;21015;-76
2022/10/21 09:48:21;;;;;;;8.00;4.40;;;;;;;;;;5061658;28;20457;-76
2022/10/21 09:50:50;;;;;;;12.53;5.93;;;;;;;;;;5071030;28;20539;-75
2022/10/21 09:53:18;;;;;;;8.70;4.77;;;;;;;;;;5071817;28;20437;-75
2022/10/21 09:55:46;;;;;;;10.53;5.60;;;;;;;;;;5072597;28;20448;-76
2022/10/21 09:58:24;;;;;;;7.77;5.00;;;;;;;;;;5066613;28;20944;-76
2022/10/21 10:00:51;;;;;;;7.10;4.80;;;;;;;;;;5052562;28;20489;-76
2022/10/21 10:03:32;;;;;;;5.53;3.60;;;;;;;;;;5052410;28;20460;-76
2022/10/21 10:06:00;;;;;;;6.07;3.17;;;;;;;;;;5052775;28;20460;-75
2022/10/21 10:08:32;;;;;;;5.70;3.63;;;;;;;;;;5052050;28;20973;-76
2022/10/21 10:11:21;;;;;;;6.47;3.87;;;;;;;;;;5051931;28;21015;-77
2022/10/21 10:13:50;;;;;;;8.23;4.03;;;;;;;;;;5046822;28;20457;-77
2022/10/21 10:16:22;;;;;;;6.40;3.70;;;;;;;;;;5051669;28;20797;-76
2022/10/21 10:18:50;;;;;;;3.87;3.07;;;;;;;;;;5052498;28;20464;-76
2022/10/21 10:21:18;;;;;;;5.07;3.30;;;;;;;;;;5052753;28;20488;-77
2022/10/21 10:23:46;;;;;;;5.50;3.07;;;;;;;;;;5051181;28;20446;-75
2022/10/21 10:26:18;;;;;;;4.70;3.30;;;;;;;;;;5051758;28;20445;-75
2022/10/21 10:28:51;;;;;;;12.33;3.63;;;;;;;;;;5050917;28;20820;-75
2022/10/21 10:31:24;;;;;;;5.17;3.40;;;;;;;;;;5051046;28;21007;-76
2022/10/21 10:33:54;;;;;;;4.70;2.80;;;;;;;;;;5051299;28;20906;-76
2022/10/21 10:36:25;;;;;;;6.57;3.47;;;;;;;;;;5052892;28;20783;-77
2022/10/21 10:38:54;;;;;;;5.57;3.37;;;;;;;;;;5058343;28;20440;-77
2022/10/21 10:41:21;;;;;;;7.33;3.20;;;;;;;;;;5055800;28;20465;-76
2022/10/21 10:43:52;;;;;;;6.03;3.43;;;;;;;;;;5069614;28;20441;-76
2022/10/21 10:46:23;;;;;;;3.93;3.10;;;;;;;;;;5075464;28;20453;-77
2022/10/21 10:48:51;;;;;;;6.53;3.30;;;;;;;;;;5075236;28;20433;-78
2022/10/21 10:51:26;;;;;;;4.47;3.10;;;;;;;;;;5065517;28;20551;-78
2022/10/21 10:54:00;;;;;;;4.67;3.30;;;;;;;;;;5057856;28;20539;-75
2022/10/21 10:56:30;;;;;;;4.33;3.03;;;;;;;;;;5066769;28;20924;-76
2022/10/21 10:59:03;;;;;;;4.73;3.17;;;;;;;;;;5067863;28;20449;-75
2022/10/21 11:01:31;;;;;;;3.90;2.60;;;;;;;;;;5056239;28;20473;-76
2022/10/21 11:04:01;;;;;;;7.73;3.30;;;;;;;;;;5053623;28;20444;-77
2022/10/21 11:06:34;;;;;;;4.77;3.70;;;;;;;;;;5070914;28;20452;-76
2022/10/21 11:09:01;;;;;;;5.50;3.37;;;;;;;;;;5070622;28;20916;-76
2022/10/21 11:11:34;;;;;;;5.97;3.60;;;;;;;;;;5069616;28;20510;-75
2022/10/21 11:14:03;;;;;;;4.07;3.60;;;;;;;;;;5049904;28;20448;-76
2022/10/21 11:16:47;;;;;;;6.00;3.40;;;;;;;;;;5050565;28;20445;-75
2022/10/21 11:19:17;;;;;;;3.47;3.17;;;;;;;;;;5050560;28;20933;-76
2022/10/21 11:21:46;;;;;;;3.03;2.73;;;;;;;;;;5050190;28;20833;-77
2022/10/21 11:24:31;;;;;;;3.20;2.97;;;;;;;;;;5049768;28;20868;-75
2022/10/21 11:26:59;;;;;;;3.93;2.70;;;;;;;;;;5040523;28;20437;-76
2022/10/21 11:29:35;;;;;;;5.73;2.60;;;;;;;;;;5050493;28;20438;-77
2022/10/21 11:32:09;;;;;;;2.97;2.67;;;;;;;;;;5049861;28;20948;-76
2022/10/21 11:34:40;;;;;;;3.67;2.57;;;;;;;;;;5049737;28;20445;-77
2022/10/21 11:37:12;;;;;;;3.57;2.50;;;;;;;;;;5059019;28;20448;-76
2022/10/21 11:39:51;;;;;;;3.17;2.53;;;;;;;;;;5070057;28;20468;-76
2022/10/21 11:42:20;;;;;;;2.90;2.27;;;;;;;;;;5074441;28;20463;-77
2022/10/21 11:44:58;;;;;;;4.13;2.97;;;;;;;;;;5076625;28;20535;-75
2022/10/21 11:47:29;;;;;;;2.67;2.47;;;;;;;;;;5093468;28;20454;-76
2022/10/21 11:50:01;;;;;;;3.10;2.27;;;;;;;;;;5073849;28;20416;-76
2022/10/21 11:52:34;;;;;;;4.33;2.57;;;;;;;;;;5073769;28;20464;-75
2022/10/21 11:55:11;;;;;;;2.60;1.93;;;;;;;;;;5073843;28;20432;-78
2022/10/21 11:57:43;;;;;;;3.83;2.57;;;;;;;;;;5073862;28;20448;-77
2022/10/21 12:00:14;;;;;;;3.10;1.63;;;;;;;;;;5073987;28;20871;-74
2022/10/21 12:02:44;;;;;;;2.80;2.03;;;;;;;;;;5074011;28;20461;-75
2022/10/21 12:05:16;;;;;;;1.90;1.47;;;;;;;;;;5074490;28;20464;-77
2022/10/21 12:07:48;;;;;;;2.57;2.17;;;;;;;;;;5075111;28;20457;-76
2022/10/21 12:10:19;;;;;;;4.53;1.90;;;;;;;;;;5076014;28;20428;-76
2022/10/21 12:12:47;;;;;;;1.60;1.50;;;;;;;;;;5073818;28;20535;-76
2022/10/21 12:15:17;;;;;;;2.40;1.60;;;;;;;;;;5097414;28;20477;-77
2022/10/21 12:17:46;;;;;;;1.90;1.70;;;;;;;;;;5098596;28;20497;-76
2022/10/21 12:20:17;;;;;;;2.70;1.70;;;;;;;;;;5097762;28;20488;-76
2022/10/21 12:22:44;;;;;;;1.93;1.70;;;;;;;;;;5097620;28;20415;-79
2022/10/21 12:25:21;;;;;;;3.20;1.30;;;;;;;;;;5095686;28;20938;-77
2022/10/21 12:27:52;;;;;;;3.00;1.60;;;;;;;;;;5087405;28;20421;-76
2022/10/21 12:30:21;;;;;;;1.53;1.30;;;;;;;;;;5075925;28;20437;-77
2022/10/21 12:32:53;;;;;;;1.60;1.27;;;;;;;;;;5073577;28;20875;-76
2022/10/21 12:35:25;;;;;;;3.00;1.60;;;;;;;;;;5078870;28;20448;-76
2022/10/21 12:38:07;;;;;;;2.93;1.40;;;;;;;;;;5086940;28;20439;-76
2022/10/21 12:40:36;;;;;;;1.37;1.37;;;;;;;;;;5090431;28;20480;-76
2022/10/21 12:43:04;;;;;;;1.60;1.50;;;;;;;;;;5090187;28;20536;-76
2022/10/21 12:45:33;;;;;;;5.80;1.73;;;;;;;;;;5086680;28;20444;-76
2022/10/21 12:48:01;;;;;;;1.90;1.20;;;;;;;;;;5074307;28;20468;-77
2022/10/21 12:50:30;;;;;;;1.63;1.30;;;;;;;;;;5075226;28;20440;-77
2022/10/21 12:53:04;;;;;;;1.90;1.07;;;;;;;;;;5073567;28;20459;-76
2022/10/21 12:55:38;;;;;;;2.03;1.40;;;;;;;;;;5073889;28;20450;-76
2022/10/21 12:58:07;;;;;;;3.20;1.60;;;;;;;;;;5073535;28;20424;-77
2022/10/21 13:00:56;;;;;;;2.37;1.20;;;;;;;;;;5076445;28;20491;-76
2022/10/21 13:03:43;;;;;;;1.20;1.10;;;;;;;;;;5074452;28;20944;-78
2022/10/21 13:06:12;;;;;;;2.23;1.30;;;;;;;;;;5075349;28;20493;-77
2022/10/21 13:08:40;;;;;;;2.63;1.37;;;;;;;;;;5074864;28;21103;-77
2022/10/21 13:11:21;;;;;;;5.67;1.63;;;;;;;;;;5073206;28;20828;-78
2022/10/21 13:13:49;;;;;;;4.97;2.40;;;;;;;;;;5072345;28;20432;-77
2022/10/21 13:16:34;;;;;;;4.50;1.83;;;;;;;;;;5072598;28;21002;-77
2022/10/21 13:19:02;;;;;;;2.30;1.30;;;;;;;;;;5073439;28;20429;-76
2022/10/21 13:21:40;;;;;;;1.83;1.43;;;;;;;;;;5072734;28;20520;-76
2022/10/21 13:24:15;;;;;;;1.63;1.30;;;;;;;;;;5072468;28;20824;-76
2022/10/21 13:26:47;;;;;;;2.57;1.80;;;;;;;;;;5072760;28;20515;-78
2022/10/21 13:29:23;;;;;;;1.77;1.60;;;;;;;;;;5073795;28;20920;-78
2022/10/21 13:32:04;;;;;;;2.80;1.67;;;;;;;;;;5072444;28;20468;-77
2022/10/21 13:34:32;;;;;;;1.80;1.70;;;;;;;;;;5071844;28;20443;-76
2022/10/21 13:37:00;;;;;;;2.00;1.80;;;;;;;;;;5072454;28;20444;-77
2022/10/21 13:39:29;;;;;;;3.07;1.57;;;;;;;;;;5071419;28;20838;-77
2022/10/21 13:41:59;;;;;;;2.53;1.33;;;;;;;;;;5072145;28;20484;-78
2022/10/21 13:44:29;;;;;;;3.60;1.50;;;;;;;;;;5072233;28;20429;-77
2022/10/21 13:46:57;;;;;;;1.90;1.57;;;;;;;;;;5074169;28;20740;-77
2022/10/21 13:49:27;;;;;;;2.50;1.93;;;;;;;;;;5072385;28;20479;-77
2022/10/21 13:51:55;;;;;;;3.47;1.70;;;;;;;;;;5072180;28;20460;-77
2022/10/21 13:54:23;;;;;;;2.07;1.60;;;;;;;;;;5071232;28;20814;-76
2022/10/21 13:56:50;;;;;;;2.67;1.33;;;;;;;;;;5070999;28;20821;-76
2022/10/21 13:59:24;;;;;;;3.07;1.67;;;;;;;;;;5091247;28;20524;-78
2022/10/21 14:01:52;;;;;;;2.27;1.50;;;;;;;;;;5092639;28;20477;-76
2022/10/21 14:04:21;;;;;;;1.60;1.50;;;;;;;;;;5090513;28;20436;-77
2022/10/21 14:06:51;;;;;;;1.57;1.30;;;;;;;;;;5072375;28;20441;-76
2022/10/21 14:09:19;;;;;;;1.57;1.47;;;;;;;;;;5072059;28;20911;-76
2022/10/21 14:11:50;;;;;;;5.47;1.40;;;;;;;;;;5071192;28;20454;-77
2022/10/21 14:14:18;;;;;;;1.83;1.50;;;;;;;;;;5070995;28;20444;-77
2022/10/21 14:16:49;;;;;;;1.60;1.50;;;;;;;;;;5070913;28;20440;-77
2022/10/21 14:19:18;;;;;;;2.20;1.67;;;;;;;;;;5071396;28;20471;-76
2022/10/21 14:21:46;;;;;;;1.53;1.40;;;;;;;;;;5070880;28;20489;-76
2022/10/21 14:24:25;;;;;;;4.10;1.27;;;;;;;;;;5071331;28;20448;-77
2022/10/21 14:26:54;;;;;;;3.13;1.80;;;;;;;;;;5071519;28;20447;-77
2022/10/21 14:29:21;;;;;;;4.90;1.73;;;;;;;;;;5070922;28;20436;-76
2022/10/21 14:31:48;;;;;;;2.57;1.50;;;;;;;;;;5071045;28;20461;-77
2022/10/21 14:34:22;;;;;;;1.60;1.27;;;;;;;;;;5070286;28;20444;-77
2022/10/21 14:37:02;;;;;;;1.83;1.73;;;;;;;;;;5071115;28;20918;-76
2022/10/21 14:39:30;;;;;;;2.63;1.50;;;;;;;;;;5071240;28;20467;-77
2022/10/21 14:42:02;;;;;;;1.17;1.00;;;;;;;;;;5090323;28;20465;-77